Time;durP1;ratioP1;P1;durP2;ratioP2;P2;SDS_P1;SDS_P2;PMS_P1;PMS_P2;Temp;Humidity;BMP_temperature;BMP_pressure;BME280_temperature;BME280_humidity;BME280_pressure;Samples;Min_cycle;Max_cycle;Signal;HPM_P1;HPM_P2
2024/04/03 00:00:31;;;;;;;4.73;1.00;;;;;;;11.04;98.06;99927.97;5055127;28;20258;-70
2024/04/03 00:02:57;;;;;;;2.10;0.30;;;;;;;11.05;97.90;99918.72;5054905;28;20539;-69
2024/04/03 00:05:23;;;;;;;2.20;0.50;;;;;;;11.06;98.60;99923.03;5055283;28;20871;-69
2024/04/03 00:07:51;;;;;;;2.10;0.30;;;;;;;11.05;98.47;99919.50;5055257;28;20525;-69
2024/04/03 00:10:17;;;;;;;2.13;0.40;;;;;;;10.98;98.97;99923.81;5055272;28;20226;-69
2024/04/03 00:12:43;;;;;;;2.40;0.60;;;;;;;11.07;97.49;99921.94;5054836;28;21088;-69
2024/04/03 00:15:09;;;;;;;2.10;0.37;;;;;;;11.05;98.27;99919.50;5054436;28;20664;-69
2024/04/03 00:17:35;;;;;;;2.10;0.40;;;;;;;10.93;98.94;99916.66;5054788;28;20529;-69
2024/04/03 00:20:01;;;;;;;2.37;0.70;;;;;;;10.90;99.70;99920.00;5054374;28;20218;-69
2024/04/03 00:22:28;;;;;;;2.10;0.33;;;;;;;10.76;100.00;99922.88;5054536;28;20466;-69
2024/04/03 00:24:55;;;;;;;2.23;0.57;;;;;;;10.73;100.00;99928.94;5054976;28;20628;-69
2024/04/03 00:27:22;;;;;;;2.13;0.43;;;;;;;10.67;100.00;99924.81;5054551;28;20457;-69
2024/04/03 00:29:47;;;;;;;2.10;0.37;;;;;;;10.67;100.00;99934.81;5054198;28;20493;-69
2024/04/03 00:32:14;;;;;;;2.30;0.60;;;;;;;10.68;100.00;99917.47;5054303;28;20966;-69
2024/04/03 00:34:40;;;;;;;2.10;0.40;;;;;;;10.68;100.00;99926.38;5054476;28;20614;-69
2024/04/03 00:37:07;;;;;;;2.30;0.73;;;;;;;10.69;100.00;99933.38;5054360;28;20525;-69
2024/04/03 00:39:33;;;;;;;2.20;0.53;;;;;;;10.60;100.00;99925.25;5054302;28;20976;-69
2024/04/03 00:42:02;;;;;;;2.20;0.53;;;;;;;10.60;100.00;99929.88;5053932;28;20792;-69
2024/04/03 00:44:28;;;;;;;2.10;0.40;;;;;;;10.66;100.00;99923.19;5054451;28;20489;-69
2024/04/03 00:46:55;;;;;;;2.40;0.40;;;;;;;10.69;100.00;99930.69;5054565;28;20954;-69
2024/04/03 00:49:21;;;;;;;2.23;0.50;;;;;;;10.66;100.00;99925.09;5053874;28;20710;-69
2024/04/03 00:51:49;;;;;;;2.10;0.43;;;;;;;10.63;100.00;99923.03;5054308;28;20534;-69
2024/04/03 00:54:16;;;;;;;2.30;0.60;;;;;;;10.63;100.00;99926.53;5054308;28;20549;-69
2024/04/03 00:56:43;;;;;;;2.30;0.50;;;;;;;10.70;100.00;99920.63;5054408;28;20490;-69
2024/04/03 00:59:10;;;;;;;2.10;0.40;;;;;;;10.66;100.00;99920.47;5054011;28;20519;-69
2024/04/03 01:01:36;;;;;;;2.07;0.37;;;;;;;10.65;100.00;99920.81;5053941;28;20451;-69
2024/04/03 01:04:02;;;;;;;2.10;0.40;;;;;;;10.52;100.00;99922.53;5054045;28;20466;-69
2024/04/03 01:06:29;;;;;;;2.13;0.50;;;;;;;10.50;100.00;99916.66;5053927;28;20518;-70
2024/04/03 01:08:54;;;;;;;2.47;0.57;;;;;;;10.45;100.00;99911.41;5053845;28;20239;-69
2024/04/03 01:11:21;;;;;;;2.30;0.77;;;;;;;10.49;100.00;99917.75;5053504;28;20950;-69
2024/04/03 01:13:47;;;;;;;2.30;0.70;;;;;;;10.51;100.00;99918.25;5054037;28;20310;-69
2024/04/03 01:16:15;;;;;;;2.30;0.80;;;;;;;10.47;100.00;99915.38;5053632;28;20478;-69
2024/04/03 01:18:40;;;;;;;2.60;0.73;;;;;;;10.51;100.00;99912.81;5053678;28;20287;-69
2024/04/03 01:21:07;;;;;;;2.13;0.47;;;;;;;10.58;100.00;99911.25;5053811;28;20524;-69
2024/04/03 01:23:33;;;;;;;2.17;0.50;;;;;;;10.54;100.00;99904.09;5053947;28;20310;-69
2024/04/03 01:26:01;;;;;;;2.30;0.70;;;;;;;10.46;100.00;99907.56;5053547;28;20529;-69
2024/04/03 01:28:26;;;;;;;2.30;0.40;;;;;;;10.44;100.00;99898.94;5053233;28;20213;-70
2024/04/03 01:30:53;;;;;;;2.00;0.30;;;;;;;10.37;100.00;99895.94;5053657;28;20536;-69
2024/04/03 01:33:18;;;;;;;2.10;0.30;;;;;;;10.39;100.00;99904.53;5053121;28;20251;-69
2024/04/03 01:35:45;;;;;;;2.60;0.93;;;;;;;10.31;100.00;99901.50;5053062;28;21071;-69
2024/04/03 01:38:10;;;;;;;2.20;0.50;;;;;;;10.28;100.00;99902.13;5053426;28;20209;-69
2024/04/03 01:40:37;;;;;;;2.10;0.40;;;;;;;10.32;100.00;99891.47;5053419;28;20529;-69
2024/04/03 01:43:04;;;;;;;2.20;0.60;;;;;;;10.29;100.00;99898.31;5053069;28;20224;-68
2024/04/03 01:45:31;;;;;;;2.30;0.60;;;;;;;10.34;100.00;99887.31;5052951;28;20492;-68
2024/04/03 01:47:56;;;;;;;2.87;0.90;;;;;;;10.34;100.00;99887.31;5053323;28;20453;-69
2024/04/03 01:50:37;;;;;;;2.70;1.07;;;;;;;10.40;100.00;99892.56;5053707;28;20521;-69
2024/04/03 01:53:03;;;;;;;2.10;0.50;;;;;;;10.42;100.00;99888.44;5053394;28;20219;-68
2024/04/03 01:55:30;;;;;;;3.03;0.80;;;;;;;10.45;100.00;99885.13;5053222;28;20488;-69
2024/04/03 01:57:55;;;;;;;2.20;0.67;;;;;;;10.48;100.00;99889.88;5053628;28;20231;-69
2024/04/03 02:00:23;;;;;;;2.17;0.50;;;;;;;10.51;100.00;99885.75;5053736;28;20492;-69
2024/04/03 02:02:49;;;;;;;2.00;0.40;;;;;;;10.60;100.00;99887.34;5053088;28;20314;-69
2024/04/03 02:05:16;;;;;;;2.10;0.47;;;;;;;10.65;100.00;99893.72;5053298;28;20533;-69
2024/04/03 02:07:41;;;;;;;2.10;0.40;;;;;;;10.60;100.00;99890.06;5054020;28;20239;-69
2024/04/03 02:10:08;;;;;;;2.20;0.50;;;;;;;10.67;100.00;99889.59;5053469;28;20466;-69
2024/04/03 02:12:34;;;;;;;2.10;0.50;;;;;;;10.75;100.00;99893.41;5052867;28;20624;-69
2024/04/03 02:15:00;;;;;;;2.20;0.60;;;;;;;10.79;99.68;99887.00;5053471;28;20478;-69
2024/04/03 02:17:27;;;;;;;2.13;0.37;;;;;;;10.81;99.17;99875.88;5053511;28;20298;-69
2024/04/03 02:19:54;;;;;;;2.93;0.93;;;;;;;10.74;99.40;99876.34;5053333;28;20479;-69
2024/04/03 02:22:19;;;;;;;2.27;0.57;;;;;;;10.79;99.60;99876.19;5053416;28;20458;-69
2024/04/03 02:24:46;;;;;;;2.30;0.50;;;;;;;10.79;99.00;99870.75;5053004;28;20545;-69
2024/04/03 02:27:12;;;;;;;2.07;0.40;;;;;;;10.78;99.35;99866.47;5053024;28;20231;-69
2024/04/03 02:29:38;;;;;;;3.13;1.50;;;;;;;10.80;99.52;99874.25;5052692;28;20484;-69
2024/04/03 02:32:04;;;;;;;2.10;0.50;;;;;;;10.85;98.64;99860.59;5053123;28;20295;-69
2024/04/03 02:34:32;;;;;;;2.40;0.70;;;;;;;10.83;98.43;99869.00;5053337;28;20521;-69
2024/04/03 02:36:58;;;;;;;2.10;0.30;;;;;;;10.90;98.30;99873.97;5052817;28;20524;-71
2024/04/03 02:39:24;;;;;;;2.97;0.97;;;;;;;10.91;98.02;99870.13;5053150;28;20482;-70
2024/04/03 02:41:50;;;;;;;2.13;0.53;;;;;;;10.95;97.66;99871.06;5052818;28;20200;-70
2024/04/03 02:44:17;;;;;;;5.07;0.80;;;;;;;10.88;98.92;99883.50;5055974;28;20574;-68
2024/04/03 02:46:42;;;;;;;2.13;0.50;;;;;;;10.95;98.25;99871.06;5056511;28;20195;-69
2024/04/03 02:49:10;;;;;;;2.03;0.30;;;;;;;11.00;97.31;99870.13;5056735;28;20507;-69
2024/04/03 02:51:37;;;;;;;2.30;0.60;;;;;;;10.97;97.82;99873.47;5056522;28;20265;-69
2024/04/03 02:54:03;;;;;;;2.80;0.60;;;;;;;10.94;98.14;99869.50;5056368;28;20466;-68
2024/04/03 02:56:29;;;;;;;2.20;0.60;;;;;;;11.01;97.75;99879.84;5056319;28;20500;-69
2024/04/03 02:58:56;;;;;;;3.03;0.80;;;;;;;10.94;98.29;99874.13;5056300;28;21001;-68
2024/04/03 03:01:21;;;;;;;2.80;1.23;;;;;;;10.83;99.69;99868.22;5056198;28;20212;-69
2024/04/03 03:03:48;;;;;;;2.20;0.67;;;;;;;10.77;100.00;99881.13;5055848;28;20586;-68
2024/04/03 03:06:14;;;;;;;2.00;0.30;;;;;;;10.71;100.00;99876.97;5056113;28;20203;-69
2024/04/03 03:08:42;;;;;;;2.47;0.70;;;;;;;10.62;100.00;99873.47;5055748;28;21038;-69
2024/04/03 03:11:07;;;;;;;2.60;0.60;;;;;;;10.47;100.00;99873.97;5056327;28;20449;-69
2024/04/03 03:13:34;;;;;;;2.10;0.40;;;;;;;10.43;100.00;99875.72;5055572;28;20908;-68
2024/04/03 03:16:01;;;;;;;2.07;0.40;;;;;;;10.30;100.00;99872.81;5056207;28;20242;-69
2024/04/03 03:18:28;;;;;;;2.20;0.50;;;;;;;10.15;100.00;99875.97;5055521;28;20950;-69
2024/04/03 03:20:54;;;;;;;2.63;1.03;;;;;;;10.09;100.00;99898.84;5055784;28;20858;-69
2024/04/03 03:23:21;;;;;;;2.57;0.90;;;;;;;10.05;100.00;99892.50;5055792;28;20540;-69
2024/04/03 03:25:51;;;;;;;2.47;0.73;;;;;;;9.98;100.00;99894.84;5055412;28;20570;-69
2024/04/03 03:28:18;;;;;;;3.13;1.03;;;;;;;9.89;100.00;99894.81;5055598;28;20457;-70
2024/04/03 03:30:45;;;;;;;2.30;0.63;;;;;;;9.88;100.00;99924.91;5055439;28;20915;-71
2024/04/03 03:33:12;;;;;;;2.10;0.40;;;;;;;9.77;100.00;99905.44;5055301;28;21002;-70
2024/04/03 03:35:38;;;;;;;2.10;0.40;;;;;;;9.62;100.00;99906.66;5055839;28;20578;-71
2024/04/03 03:38:04;;;;;;;2.10;0.40;;;;;;;9.60;100.00;99911.56;5055586;28;20529;-72
2024/04/03 03:40:32;;;;;;;2.00;0.30;;;;;;;9.50;100.00;99898.31;5055738;28;20302;-71
2024/04/03 03:43:00;;;;;;;3.60;0.93;;;;;;;9.47;100.00;99901.63;5055371;28;20454;-72
2024/04/03 03:45:27;;;;;;;2.83;0.67;;;;;;;9.49;100.00;99907.53;5055280;28;20521;-71
2024/04/03 03:47:52;;;;;;;2.00;0.30;;;;;;;9.41;100.00;99911.00;5055038;28;20525;-71
2024/04/03 03:53:03;;;;;;;2.00;0.30;;;;;;;9.38;100.00;99917.81;5055055;28;20266;-71
2024/04/03 03:55:31;;;;;;;2.10;0.40;;;;;;;9.41;100.00;99924.50;5054381;28;20469;-71
2024/04/03 03:58:01;;;;;;;2.10;0.40;;;;;;;9.36;100.00;99925.44;5055449;28;20446;-71
2024/04/03 04:00:27;;;;;;;2.33;0.40;;;;;;;9.40;100.00;99929.13;5055742;28;20478;-71
2024/04/03 04:02:54;;;;;;;2.70;0.80;;;;;;;9.37;100.00;99926.22;5054604;28;20541;-71
2024/04/03 04:05:21;;;;;;;2.20;0.70;;;;;;;9.35;100.00;99930.03;5054926;28;20447;-72
2024/04/03 04:07:47;;;;;;;2.00;0.30;;;;;;;9.33;100.00;99934.94;5054598;28;20474;-72
2024/04/03 04:10:14;;;;;;;2.00;0.30;;;;;;;9.32;100.00;99941.47;5055097;28;20446;-73
2024/04/03 04:12:40;;;;;;;2.70;1.37;;;;;;;9.31;100.00;99937.16;5054811;28;20968;-72
2024/04/03 04:15:08;;;;;;;2.20;0.60;;;;;;;9.31;100.00;99941.78;5054816;28;20438;-72
2024/04/03 04:17:34;;;;;;;2.50;0.40;;;;;;;9.26;100.00;99944.63;5055007;28;20311;-71
2024/04/03 04:20:00;;;;;;;2.00;0.30;;;;;;;9.24;100.00;99939.50;5054489;28;20435;-72
2024/04/03 04:22:26;;;;;;;2.10;0.53;;;;;;;9.25;100.00;99949.22;5054616;28;20259;-72
2024/04/03 04:24:54;;;;;;;2.00;0.40;;;;;;;9.29;100.00;99952.09;5053459;28;20521;-72
2024/04/03 04:27:20;;;;;;;2.00;0.40;;;;;;;9.28;100.00;99955.91;5054851;28;20592;-72
2024/04/03 04:29:47;;;;;;;3.03;1.17;;;;;;;9.26;100.00;99964.31;5054350;28;20454;-73
2024/04/03 04:32:14;;;;;;;2.10;0.50;;;;;;;9.25;100.00;99962.72;5054439;28;20448;-73
2024/04/03 04:34:41;;;;;;;2.07;0.37;;;;;;;9.24;100.00;99966.50;5054398;28;20458;-73
2024/04/03 04:37:07;;;;;;;2.00;0.30;;;;;;;9.25;100.00;99962.72;5054301;28;20577;-73
2024/04/03 04:39:34;;;;;;;2.07;0.40;;;;;;;9.20;100.00;99956.63;5054480;28;20538;-74
2024/04/03 04:41:59;;;;;;;8.03;2.10;;;;;;;9.26;100.00;99969.72;5054352;28;20689;-73
2024/04/03 04:44:26;;;;;;;2.20;0.60;;;;;;;9.28;100.00;99983.72;5054330;28;20446;-73
2024/04/03 04:46:53;;;;;;;2.10;0.50;;;;;;;9.24;100.00;99971.91;5054607;28;20199;-74
2024/04/03 04:49:22;;;;;;;2.30;0.50;;;;;;;9.24;100.00;99968.44;5054153;28;20480;-74
2024/04/03 04:51:48;;;;;;;2.30;0.67;;;;;;;9.20;100.00;99970.94;5054485;28;20481;-72
2024/04/03 04:54:16;;;;;;;2.00;0.30;;;;;;;9.19;100.00;99961.25;5054033;28;20502;-72
2024/04/03 04:56:42;;;;;;;4.67;1.17;;;;;;;9.24;100.00;99965.72;5053830;28;20835;-72
2024/04/03 04:59:09;;;;;;;2.00;0.30;;;;;;;9.14;100.00;99966.78;5054260;28;20446;-74
2024/04/03 05:01:36;;;;;;;2.00;0.30;;;;;;;9.17;100.00;99973.47;5054288;28;20434;-73
2024/04/03 05:04:03;;;;;;;2.77;0.50;;;;;;;9.14;100.00;99971.38;5054506;28;20528;-72
2024/04/03 05:06:30;;;;;;;2.93;1.00;;;;;;;9.18;100.00;99973.16;5053493;28;20446;-72
2024/04/03 05:08:57;;;;;;;2.83;1.03;;;;;;;9.18;100.00;99967.75;5053953;28;20438;-72
2024/04/03 05:11:23;;;;;;;6.37;2.23;;;;;;;9.24;100.00;99977.31;5054166;28;20458;-72
2024/04/03 05:13:50;;;;;;;10.27;2.23;;;;;;;9.28;100.00;99982.91;5053869;28;20545;-72
2024/04/03 05:16:20;;;;;;;6.00;2.23;;;;;;;9.29;100.00;99982.59;5053331;28;20568;-72
2024/04/03 05:18:47;;;;;;;4.10;1.73;;;;;;;9.29;100.00;99985.31;5053831;28;20545;-72
2024/04/03 05:21:13;;;;;;;2.20;0.60;;;;;;;9.25;100.00;99988.94;5053756;28;20470;-72
2024/04/03 05:23:42;;;;;;;2.80;1.23;;;;;;;9.33;100.00;99993.59;5053632;28;20467;-72
2024/04/03 05:26:10;;;;;;;3.37;1.57;;;;;;;9.34;100.00;99993.31;5053894;28;20540;-72
2024/04/03 05:28:36;;;;;;;3.20;1.30;;;;;;;9.32;100.00;99990.09;5053379;28;20496;-71
2024/04/03 05:31:03;;;;;;;3.23;0.70;;;;;;;9.33;100.00;99993.59;5053546;28;21025;-71
2024/04/03 05:33:30;;;;;;;4.07;2.27;;;;;;;9.37;100.00;100000.00;5053809;28;20817;-71
2024/04/03 05:35:56;;;;;;;2.70;0.90;;;;;;;9.40;100.00;99996.69;5053111;28;20492;-70
2024/04/03 05:38:23;;;;;;;3.47;1.87;;;;;;;9.46;100.00;100008.16;5053121;28;21004;-71
2024/04/03 05:40:51;;;;;;;5.00;1.60;;;;;;;9.45;100.00;99999.25;5053504;28;20439;-71
2024/04/03 05:43:18;;;;;;;2.77;1.23;;;;;;;9.51;100.00;100005.34;5053065;28;20516;-71
2024/04/03 05:45:45;;;;;;;2.40;0.93;;;;;;;9.53;100.00;100005.84;5053048;28;20945;-71
2024/04/03 05:48:11;;;;;;;3.93;1.10;;;;;;;9.52;100.00;100009.66;5053305;28;20525;-71
2024/04/03 05:50:37;;;;;;;5.47;2.20;;;;;;;9.52;100.00;100015.06;5053388;28;20451;-71
2024/04/03 05:53:04;;;;;;;4.30;2.07;;;;;;;9.55;100.00;100014.44;5053531;28;20490;-70
2024/04/03 05:55:30;;;;;;;5.40;2.40;;;;;;;9.54;100.00;100020.94;5053016;28;20529;-72
2024/04/03 05:57:58;;;;;;;4.00;2.10;;;;;;;9.56;100.00;100016.03;5053177;28;20521;-72
2024/04/03 06:00:25;;;;;;;3.67;1.73;;;;;;;9.52;100.00;100010.47;5052933;28;21015;-71
2024/04/03 06:02:50;;;;;;;3.47;1.50;;;;;;;9.58;100.00;100016.53;5053184;28;20833;-71
2024/04/03 06:05:17;;;;;;;4.07;1.57;;;;;;;9.58;100.00;100019.22;5053588;28;20452;-70
2024/04/03 06:07:45;;;;;;;4.93;2.10;;;;;;;9.62;100.00;100016.72;5053635;28;20210;-70
2024/04/03 06:10:12;;;;;;;4.43;1.80;;;;;;;9.69;100.00;100011.66;5053109;28;20457;-72
2024/04/03 06:12:38;;;;;;;2.70;0.67;;;;;;;9.77;100.00;100022.53;5053468;28;20493;-72
2024/04/03 06:15:07;;;;;;;2.40;1.00;;;;;;;9.78;100.00;100023.31;5053135;28;20447;-73
2024/04/03 06:17:33;;;;;;;3.93;1.80;;;;;;;9.82;100.00;100018.88;5053309;28;20491;-70
2024/04/03 06:19:59;;;;;;;4.30;1.10;;;;;;;9.86;100.00;100015.25;5056657;28;20442;-70
2024/04/03 06:22:25;;;;;;;2.70;1.10;;;;;;;9.86;100.00;100020.66;5056825;28;20234;-70
2024/04/03 06:24:52;;;;;;;3.07;1.10;;;;;;;9.88;100.00;100019.56;5056891;28;20441;-70
2024/04/03 06:27:17;;;;;;;3.97;1.77;;;;;;;9.90;100.00;100025.47;5056878;28;20231;-69
2024/04/03 06:29:44;;;;;;;5.10;1.73;;;;;;;9.85;100.00;100032.59;5056633;28;20946;-69
2024/04/03 06:32:11;;;;;;;3.60;1.77;;;;;;;9.85;100.00;100027.19;5056955;28;20204;-69
2024/04/03 06:34:38;;;;;;;4.40;1.10;;;;;;;9.83;100.00;100029.41;5056977;28;20765;-70
2024/04/03 06:37:04;;;;;;;5.90;1.73;;;;;;;9.82;100.00;100029.72;5056641;28;20989;-70
2024/04/03 06:39:31;;;;;;;4.40;2.07;;;;;;;9.91;100.00;100033.25;5056318;28;21037;-69
2024/04/03 06:41:57;;;;;;;3.70;1.63;;;;;;;9.92;100.00;100025.97;5056471;28;20308;-70
2024/04/03 06:44:24;;;;;;;3.50;1.63;;;;;;;9.96;100.00;100029.63;5056558;28;20444;-70
2024/04/03 06:46:49;;;;;;;3.80;1.90;;;;;;;10.00;100.00;100027.91;5056181;28;20232;-70
2024/04/03 06:49:17;;;;;;;3.30;1.33;;;;;;;10.08;100.00;100030.66;5057347;28;20531;-68
2024/04/03 06:51:43;;;;;;;3.20;1.20;;;;;;;10.14;100.00;100039.44;5056446;28;20291;-70
2024/04/03 06:54:09;;;;;;;3.07;1.13;;;;;;;10.09;100.00;100044.97;5057097;28;20550;-70
2024/04/03 06:56:35;;;;;;;3.30;1.10;;;;;;;10.09;100.00;100050.38;5055887;28;20232;-70
2024/04/03 06:59:02;;;;;;;3.30;1.77;;;;;;;10.11;100.00;100053.59;5056010;28;20486;-70
2024/04/03 07:01:28;;;;;;;3.90;2.00;;;;;;;10.10;100.00;100052.78;5056606;28;20625;-69
2024/04/03 07:03:56;;;;;;;2.37;0.63;;;;;;;10.10;100.00;100058.22;5056487;28;20466;-69
2024/04/03 07:06:23;;;;;;;2.57;0.70;;;;;;;10.12;100.00;100047.06;5056549;28;20200;-70
2024/04/03 07:08:50;;;;;;;2.00;0.40;;;;;;;10.10;100.00;100052.00;5056014;28;20450;-70
2024/04/03 07:11:18;;;;;;;2.40;0.87;;;;;;;10.12;100.00;100052.47;5056292;28;20431;-69
2024/04/03 07:13:44;;;;;;;2.30;0.67;;;;;;;10.09;100.00;100066.63;5055706;28;20459;-69
2024/04/03 07:16:10;;;;;;;2.03;0.40;;;;;;;10.00;100.00;100057.66;5056292;28;20525;-69
2024/04/03 07:18:39;;;;;;;2.23;0.57;;;;;;;9.87;100.00;100059.31;5056022;28;21009;-69
2024/04/03 07:21:05;;;;;;;2.20;0.60;;;;;;;9.80;100.00;100062.47;5055912;28;20207;-69
2024/04/03 07:23:33;;;;;;;2.57;0.87;;;;;;;9.88;100.00;100062.84;5056334;28;20463;-69
2024/04/03 07:25:59;;;;;;;2.93;1.23;;;;;;;9.80;100.00;100076.00;5056318;28;20210;-69
2024/04/03 07:28:27;;;;;;;3.37;0.87;;;;;;;9.70;100.00;100070.84;5055604;28;20462;-70
2024/04/03 07:30:53;;;;;;;2.27;0.87;;;;;;;9.76;100.00;100079.63;5055456;28;20449;-69
2024/04/03 07:33:20;;;;;;;2.50;0.83;;;;;;;9.69;100.00;100082.75;5055595;28;20828;-69
2024/04/03 07:35:45;;;;;;;2.10;0.40;;;;;;;9.73;100.00;100093.75;5055406;28;20246;-69
2024/04/03 07:38:12;;;;;;;3.37;1.33;;;;;;;9.61;100.00;100102.44;5055599;28;20513;-69
2024/04/03 07:40:43;;;;;;;2.43;0.80;;;;;;;9.54;100.00;100102.06;5055166;28;20204;-69
2024/04/03 07:43:10;;;;;;;2.93;1.30;;;;;;;9.48;100.00;100100.59;5055183;28;20474;-69
2024/04/03 07:45:35;;;;;;;2.80;1.10;;;;;;;9.49;100.00;100113.00;5070809;22;20473;-67
2024/04/03 07:48:02;;;;;;;2.60;1.17;;;;;;;9.38;100.00;100115.09;5033950;28;20870;-68
2024/04/03 07:50:27;;;;;;;2.47;0.70;;;;;;;9.41;100.00;100114.50;5035072;28;20579;-68
2024/04/03 07:52:54;;;;;;;4.40;2.30;;;;;;;9.44;100.00;100118.53;5034960;28;20546;-67
2024/04/03 07:55:20;;;;;;;2.47;1.10;;;;;;;9.42;100.00;100112.59;5034926;28;20688;-67
2024/04/03 07:57:48;;;;;;;2.43;0.63;;;;;;;9.38;100.00;100123.22;5035250;28;20522;-67
2024/04/03 08:00:14;;;;;;;2.73;0.77;;;;;;;9.50;100.00;100134.31;5035501;28;20295;-67
2024/04/03 08:02:41;;;;;;;2.10;0.47;;;;;;;9.70;100.00;100135.75;5035075;28;20890;-67
2024/04/03 08:05:08;;;;;;;2.40;1.10;;;;;;;9.88;100.00;100130.50;5035377;28;20559;-67
2024/04/03 08:07:36;;;;;;;4.67;1.73;;;;;;;9.98;100.00;100130.22;5035064;28;20449;-67
2024/04/03 08:10:02;;;;;;;2.10;0.40;;;;;;;9.97;100.00;100126.72;5035224;28;20443;-67
2024/04/03 08:12:28;;;;;;;2.40;0.80;;;;;;;10.01;100.00;100124.22;5034850;28;20529;-67
2024/04/03 08:14:58;;;;;;;2.40;1.13;;;;;;;10.27;100.00;100127.91;5034928;28;20231;-68
2024/04/03 08:17:25;;;;;;;3.03;1.60;;;;;;;10.43;100.00;100131.00;5034380;28;20486;-68
2024/04/03 08:19:51;;;;;;;2.70;1.03;;;;;;;10.48;100.00;100124.66;5034870;28;20505;-68
2024/04/03 08:22:18;;;;;;;2.90;1.23;;;;;;;10.64;100.00;100130.47;5034620;28;20983;-68
2024/04/03 08:24:43;;;;;;;2.20;0.70;;;;;;;10.71;100.00;100126.19;5035058;28;20454;-68
2024/04/03 08:27:10;;;;;;;3.43;1.77;;;;;;;10.77;100.00;100130.34;5035177;28;20435;-68
2024/04/03 08:29:39;;;;;;;2.10;0.50;;;;;;;10.89;100.00;100147.91;5034319;28;20208;-68
2024/04/03 08:32:07;;;;;;;2.93;0.97;;;;;;;10.99;100.00;100145.72;5034614;28;20458;-67
2024/04/03 08:34:33;;;;;;;5.13;2.07;;;;;;;11.11;100.00;100145.94;5034481;28;20470;-67
2024/04/03 08:36:59;;;;;;;5.00;2.47;;;;;;;11.34;100.00;100146.59;5034486;28;20912;-68
2024/04/03 08:39:25;;;;;;;3.67;1.83;;;;;;;11.33;100.00;100160.47;5034779;28;20322;-67
2024/04/03 08:41:57;;;;;;;3.10;1.30;;;;;;;11.33;100.00;100158.59;5034156;28;20882;-68
2024/04/03 08:44:23;;;;;;;3.00;1.57;;;;;;;11.40;100.00;100166.22;5034379;28;20283;-67
2024/04/03 08:46:50;;;;;;;3.87;1.50;;;;;;;11.41;100.00;100167.81;5033950;28;20533;-68
2024/04/03 08:49:18;;;;;;;3.57;1.70;;;;;;;11.41;100.00;100161.59;5034240;28;20204;-70
2024/04/03 08:51:53;;;;;;;8.27;2.10;;;;;;;11.43;100.00;100162.91;5034708;28;20451;-63
2024/04/03 08:54:20;;;;;;;3.93;2.17;;;;;;;11.26;100.00;100163.66;5034128;28;20974;-67
2024/04/03 08:56:50;;;;;;;2.60;1.20;;;;;;;11.31;100.00;100166.22;5034355;28;20479;-67
2024/04/03 08:59:16;;;;;;;4.93;2.30;;;;;;;11.45;100.00;100165.28;5033736;28;20857;-67
2024/04/03 09:01:43;;;;;;;3.97;1.97;;;;;;;11.56;100.00;100163.88;5033996;28;20447;-67
2024/04/03 09:04:09;;;;;;;4.23;2.40;;;;;;;11.66;99.24;100177.13;5034019;28;20463;-68
2024/04/03 09:06:40;;;;;;;4.33;2.10;;;;;;;11.79;98.70;100181.59;5034145;28;20450;-68
2024/04/03 09:09:06;;;;;;;2.50;0.90;;;;;;;11.88;97.92;100178.91;5034064;28;20295;-68
2024/04/03 09:11:32;;;;;;;4.67;2.40;;;;;;;11.94;99.16;100190.41;5034009;28;20453;-68
2024/04/03 09:13:58;;;;;;;6.67;2.13;;;;;;;12.02;96.93;100173.31;5033846;28;20225;-68
2024/04/03 09:16:25;;;;;;;6.83;2.63;;;;;;;12.05;97.04;100178.13;5033710;28;20443;-68
2024/04/03 09:19:03;;;;;;;4.50;2.40;;;;;;;12.04;95.73;100177.31;5033700;28;20236;-67
2024/04/03 09:21:30;;;;;;;3.37;1.60;;;;;;;12.15;95.51;100177.78;5034036;28;20506;-67
2024/04/03 09:23:57;;;;;;;4.60;2.57;;;;;;;12.19;97.05;100183.38;5033478;28;20535;-68
2024/04/03 09:26:25;;;;;;;4.50;2.30;;;;;;;12.19;97.29;100178.72;5033779;28;20447;-67
2024/04/03 09:28:58;;;;;;;4.50;2.10;;;;;;;12.20;95.36;100171.38;5033788;28;20447;-67
2024/04/03 09:31:24;;;;;;;3.57;1.53;;;;;;;12.07;95.55;100176.66;5033723;28;20432;-67
2024/04/03 09:33:51;;;;;;;4.07;1.87;;;;;;;12.10;95.56;100180.66;5033601;28;20890;-67
2024/04/03 09:36:18;;;;;;;5.33;2.83;;;;;;;12.10;94.90;100180.66;5033569;28;20474;-67
2024/04/03 09:38:44;;;;;;;4.03;1.77;;;;;;;12.09;95.58;100166.28;5033505;28;20492;-67
2024/04/03 09:41:13;;;;;;;6.60;2.37;;;;;;;12.27;95.52;100172.50;5033552;28;20534;-68
2024/04/03 09:43:43;;;;;;;5.87;3.00;;;;;;;12.45;94.96;100175.19;5033427;28;20231;-68
2024/04/03 09:46:13;;;;;;;3.10;1.33;;;;;;;12.43;94.43;100172.75;5033422;28;20467;-67
2024/04/03 09:48:39;;;;;;;5.60;2.33;;;;;;;12.55;93.38;100174.81;5033448;28;20466;-67
2024/04/03 09:51:06;;;;;;;5.83;2.07;;;;;;;12.79;93.51;100180.50;5033482;28;20439;-67
2024/04/03 09:53:33;;;;;;;3.87;1.53;;;;;;;12.96;93.43;100184.25;5035677;28;20454;-67
2024/04/03 09:56:00;;;;;;;3.23;1.40;;;;;;;13.05;90.38;100180.38;5037224;28;20810;-67
2024/04/03 09:58:33;;;;;;;5.90;2.23;;;;;;;13.13;90.87;100182.25;5037342;28;20518;-68
2024/04/03 10:01:01;;;;;;;5.17;1.97;;;;;;;13.25;90.84;100189.75;5037499;28;20501;-67
2024/04/03 10:03:28;;;;;;;3.50;1.87;;;;;;;13.23;90.70;100177.59;5037394;28;20459;-67
2024/04/03 10:05:59;;;;;;;5.50;2.90;;;;;;;13.29;88.28;100185.25;5037333;28;20449;-67
2024/04/03 10:08:32;;;;;;;4.90;2.13;;;;;;;13.30;87.25;100180.59;5036978;28;20762;-67
2024/04/03 10:10:59;;;;;;;4.20;1.73;;;;;;;13.09;88.05;100184.03;5037312;28;20431;-68
2024/04/03 10:13:29;;;;;;;5.70;2.27;;;;;;;13.26;89.27;100180.47;5037145;28;20549;-67
2024/04/03 10:16:02;;;;;;;3.03;1.27;;;;;;;13.29;88.71;100177.09;5037193;28;20805;-67
2024/04/03 10:18:28;;;;;;;6.13;1.97;;;;;;;13.24;87.30;100188.16;5037134;28;21022;-67
2024/04/03 10:20:57;;;;;;;2.93;0.93;;;;;;;13.37;88.58;100187.13;5037155;28;20486;-68
2024/04/03 10:23:24;;;;;;;5.67;1.60;;;;;;;13.42;85.69;100190.78;5036821;28;20465;-67
2024/04/03 10:25:51;;;;;;;3.87;1.57;;;;;;;13.41;86.25;100184.53;5036924;28;20478;-67
2024/04/03 10:28:17;;;;;;;3.93;1.57;;;;;;;13.45;88.03;100185.44;5036942;28;20466;-67
2024/04/03 10:30:53;;;;;;;5.80;2.93;;;;;;;13.59;87.42;100185.19;5037145;28;20489;-67
2024/04/03 10:33:19;;;;;;;2.97;1.10;;;;;;;13.60;87.30;100192.25;5036871;28;20465;-67
2024/04/03 10:35:46;;;;;;;3.63;1.10;;;;;;;13.68;87.80;100190.59;5036891;28;20443;-67
2024/04/03 10:38:12;;;;;;;3.77;1.63;;;;;;;13.66;86.90;100187.41;5036846;28;20267;-68
2024/04/03 10:40:38;;;;;;;4.73;1.93;;;;;;;13.51;87.16;100195.03;5036798;28;20955;-68
2024/04/03 10:43:04;;;;;;;3.77;2.03;;;;;;;13.42;86.44;100199.75;5036624;28;20993;-68
2024/04/03 10:45:31;;;;;;;5.17;2.07;;;;;;;13.36;87.15;100190.16;5036320;28;20446;-68
2024/04/03 10:47:58;;;;;;;3.67;1.37;;;;;;;13.31;87.51;100199.31;5036252;28;20303;-68
2024/04/03 10:50:25;;;;;;;4.83;2.30;;;;;;;13.18;86.47;100207.66;5036273;28;21033;-68
2024/04/03 10:52:51;;;;;;;3.47;1.53;;;;;;;13.11;84.11;100197.31;5036191;28;20457;-68
2024/04/03 10:55:19;;;;;;;4.80;1.73;;;;;;;12.92;86.54;100213.22;5036403;28;20535;-67
2024/04/03 10:57:47;;;;;;;3.43;1.57;;;;;;;12.80;87.55;100209.28;5036069;28;20718;-68
2024/04/03 11:00:14;;;;;;;3.50;1.27;;;;;;;12.73;89.12;100208.97;5036870;28;20443;-68
2024/04/03 11:02:45;;;;;;;3.50;1.60;;;;;;;12.68;88.45;100211.06;5035930;28;20461;-68
2024/04/03 11:05:15;;;;;;;3.17;1.40;;;;;;;12.60;88.86;100204.53;5036180;28;20447;-67
2024/04/03 11:07:42;;;;;;;4.20;1.97;;;;;;;12.52;89.38;100205.34;5036241;28;20510;-67
2024/04/03 11:10:13;;;;;;;4.57;2.60;;;;;;;12.50;91.45;100215.75;5036223;28;20451;-68
2024/04/03 11:12:39;;;;;;;3.33;1.23;;;;;;;12.46;92.24;100212.88;5035766;28;20467;-68
2024/04/03 11:15:07;;;;;;;3.90;1.67;;;;;;;12.39;93.89;100209.84;5036263;28;20846;-67
2024/04/03 11:17:33;;;;;;;5.93;1.43;;;;;;;12.28;96.92;100214.81;5036001;28;20483;-66
2024/04/03 11:19:59;;;;;;;4.57;2.40;;;;;;;12.21;96.83;100211.78;5036119;28;20501;-68
2024/04/03 11:22:28;;;;;;;3.60;2.20;;;;;;;12.23;96.94;100217.69;5035396;28;20712;-68
2024/04/03 11:24:55;;;;;;;6.10;2.27;;;;;;;12.16;96.62;100217.38;5035322;28;20456;-66
2024/04/03 11:27:22;;;;;;;6.77;2.80;;;;;;;12.08;96.63;100215.47;5035452;28;20447;-67